sensor_id;sensor_type;location;lat;lon;timestamp;P1;durP1;ratioP1;P2;durP2;ratioP2
66741;SDS011;53654;54.152;19.432;2023-07-02T00:01:03;9.10;;;8.40;;
66741;SDS011;53654;54.152;19.432;2023-07-02T00:03:51;9.40;;;8.60;;
66741;SDS011;53654;54.152;19.432;2023-07-02T00:06:20;9.30;;;8.40;;
66741;SDS011;53654;54.152;19.432;2023-07-02T00:08:48;9.70;;;8.80;;
66741;SDS011;53654;54.152;19.432;2023-07-02T00:11:16;10.10;;;9.20;;
66741;SDS011;53654;54.152;19.432;2023-07-02T00:13:44;9.50;;;8.70;;
66741;SDS011;53654;54.152;19.432;2023-07-02T00:16:12;9.40;;;8.60;;
66741;SDS011;53654;54.152;19.432;2023-07-02T00:18:40;9.10;;;8.30;;
66741;SDS011;53654;54.152;19.432;2023-07-02T00:21:08;9.20;;;8.40;;
66741;SDS011;53654;54.152;19.432;2023-07-02T00:23:41;9.40;;;8.70;;
66741;SDS011;53654;54.152;19.432;2023-07-02T00:26:09;9.10;;;8.30;;
66741;SDS011;53654;54.152;19.432;2023-07-02T00:28:39;9.70;;;8.80;;
66741;SDS011;53654;54.152;19.432;2023-07-02T00:31:07;9.50;;;8.70;;
66741;SDS011;53654;54.152;19.432;2023-07-02T00:33:36;9.80;;;9.00;;
66741;SDS011;53654;54.152;19.432;2023-07-02T00:36:04;9.30;;;8.30;;
66741;SDS011;53654;54.152;19.432;2023-07-02T00:38:32;9.80;;;8.60;;
66741;SDS011;53654;54.152;19.432;2023-07-02T00:41:00;13.90;;;12.70;;
66741;SDS011;53654;54.152;19.432;2023-07-02T00:43:29;10.50;;;9.50;;
66741;SDS011;53654;54.152;19.432;2023-07-02T00:45:59;11.80;;;10.60;;
66741;SDS011;53654;54.152;19.432;2023-07-02T00:48:28;9.70;;;8.90;;
66741;SDS011;53654;54.152;19.432;2023-07-02T00:50:57;9.90;;;9.10;;
66741;SDS011;53654;54.152;19.432;2023-07-02T00:53:25;10.00;;;9.20;;
66741;SDS011;53654;54.152;19.432;2023-07-02T00:55:54;10.00;;;9.20;;
66741;SDS011;53654;54.152;19.432;2023-07-02T00:58:22;10.30;;;9.30;;
66741;SDS011;53654;54.152;19.432;2023-07-02T01:00:50;10.40;;;9.50;;
66741;SDS011;53654;54.152;19.432;2023-07-02T01:03:18;9.90;;;9.10;;
66741;SDS011;53654;54.152;19.432;2023-07-02T01:05:46;10.50;;;9.60;;
66741;SDS011;53654;54.152;19.432;2023-07-02T01:08:15;10.20;;;9.30;;
66741;SDS011;53654;54.152;19.432;2023-07-02T01:10:45;10.20;;;9.50;;
66741;SDS011;53654;54.152;19.432;2023-07-02T01:13:14;9.80;;;9.00;;
66741;SDS011;53654;54.152;19.432;2023-07-02T01:15:47;10.80;;;9.70;;
66741;SDS011;53654;54.152;19.432;2023-07-02T01:18:16;9.90;;;9.20;;
66741;SDS011;53654;54.152;19.432;2023-07-02T01:20:44;10.80;;;9.70;;
66741;SDS011;53654;54.152;19.432;2023-07-02T01:23:15;9.80;;;9.00;;
66741;SDS011;53654;54.152;19.432;2023-07-02T01:25:44;10.00;;;9.20;;
66741;SDS011;53654;54.152;19.432;2023-07-02T01:28:12;9.90;;;9.20;;
66741;SDS011;53654;54.152;19.432;2023-07-02T01:30:41;10.00;;;9.20;;
66741;SDS011;53654;54.152;19.432;2023-07-02T01:33:09;9.40;;;8.70;;
66741;SDS011;53654;54.152;19.432;2023-07-02T01:35:38;10.00;;;9.20;;
66741;SDS011;53654;54.152;19.432;2023-07-02T01:38:06;10.80;;;9.80;;
66741;SDS011;53654;54.152;19.432;2023-07-02T01:40:34;10.40;;;9.60;;
66741;SDS011;53654;54.152;19.432;2023-07-02T01:43:02;10.40;;;9.60;;
66741;SDS011;53654;54.152;19.432;2023-07-02T01:45:30;10.20;;;9.30;;
66741;SDS011;53654;54.152;19.432;2023-07-02T01:47:58;11.00;;;10.10;;
66741;SDS011;53654;54.152;19.432;2023-07-02T01:50:26;10.40;;;9.50;;
66741;SDS011;53654;54.152;19.432;2023-07-02T01:52:55;10.30;;;9.60;;
66741;SDS011;53654;54.152;19.432;2023-07-02T01:55:23;10.50;;;9.60;;
66741;SDS011;53654;54.152;19.432;2023-07-02T01:57:51;11.90;;;10.80;;
66741;SDS011;53654;54.152;19.432;2023-07-02T02:00:19;11.80;;;10.60;;
66741;SDS011;53654;54.152;19.432;2023-07-02T02:02:48;11.50;;;10.50;;
66741;SDS011;53654;54.152;19.432;2023-07-02T02:05:16;11.80;;;10.70;;
66741;SDS011;53654;54.152;19.432;2023-07-02T02:07:44;11.90;;;10.90;;
66741;SDS011;53654;54.152;19.432;2023-07-02T02:10:12;12.50;;;11.40;;
66741;SDS011;53654;54.152;19.432;2023-07-02T02:12:42;12.00;;;10.90;;
66741;SDS011;53654;54.152;19.432;2023-07-02T02:15:10;12.20;;;11.20;;
66741;SDS011;53654;54.152;19.432;2023-07-02T02:17:41;12.50;;;11.50;;
66741;SDS011;53654;54.152;19.432;2023-07-02T02:20:09;12.90;;;11.80;;
66741;SDS011;53654;54.152;19.432;2023-07-02T02:22:38;12.60;;;11.60;;
66741;SDS011;53654;54.152;19.432;2023-07-02T02:25:06;13.40;;;12.30;;
66741;SDS011;53654;54.152;19.432;2023-07-02T02:27:35;12.60;;;11.50;;
66741;SDS011;53654;54.152;19.432;2023-07-02T02:30:03;13.50;;;12.30;;
66741;SDS011;53654;54.152;19.432;2023-07-02T02:32:33;13.60;;;12.40;;
66741;SDS011;53654;54.152;19.432;2023-07-02T02:35:01;14.30;;;13.10;;
66741;SDS011;53654;54.152;19.432;2023-07-02T02:37:30;13.90;;;12.70;;
66741;SDS011;53654;54.152;19.432;2023-07-02T02:39:59;13.80;;;12.60;;
66741;SDS011;53654;54.152;19.432;2023-07-02T02:42:28;14.70;;;13.40;;
66741;SDS011;53654;54.152;19.432;2023-07-02T02:44:56;14.20;;;13.10;;
66741;SDS011;53654;54.152;19.432;2023-07-02T02:47:24;15.10;;;13.70;;
66741;SDS011;53654;54.152;19.432;2023-07-02T02:49:52;14.80;;;13.50;;
66741;SDS011;53654;54.152;19.432;2023-07-02T02:52:20;15.30;;;14.00;;
66741;SDS011;53654;54.152;19.432;2023-07-02T02:54:49;14.20;;;13.20;;
66741;SDS011;53654;54.152;19.432;2023-07-02T02:57:20;14.60;;;13.40;;
66741;SDS011;53654;54.152;19.432;2023-07-02T02:59:48;14.70;;;13.50;;
66741;SDS011;53654;54.152;19.432;2023-07-02T03:02:17;14.80;;;13.60;;
66741;SDS011;53654;54.152;19.432;2023-07-02T03:04:45;14.90;;;13.60;;
66741;SDS011;53654;54.152;19.432;2023-07-02T03:07:13;15.60;;;14.40;;
66741;SDS011;53654;54.152;19.432;2023-07-02T03:09:41;15.60;;;14.20;;
66741;SDS011;53654;54.152;19.432;2023-07-02T03:12:10;14.80;;;13.60;;
66741;SDS011;53654;54.152;19.432;2023-07-02T03:14:38;14.70;;;13.60;;
66741;SDS011;53654;54.152;19.432;2023-07-02T03:17:06;15.20;;;13.90;;
66741;SDS011;53654;54.152;19.432;2023-07-02T03:19:34;14.90;;;13.80;;
66741;SDS011;53654;54.152;19.432;2023-07-02T03:22:02;15.20;;;13.80;;
66741;SDS011;53654;54.152;19.432;2023-07-02T03:24:31;15.10;;;13.80;;
66741;SDS011;53654;54.152;19.432;2023-07-02T03:26:59;15.00;;;13.80;;
66741;SDS011;53654;54.152;19.432;2023-07-02T03:29:27;15.70;;;14.50;;
66741;SDS011;53654;54.152;19.432;2023-07-02T03:31:56;15.60;;;14.40;;
66741;SDS011;53654;54.152;19.432;2023-07-02T03:34:24;15.50;;;14.20;;
66741;SDS011;53654;54.152;19.432;2023-07-02T03:36:53;15.60;;;14.20;;
66741;SDS011;53654;54.152;19.432;2023-07-02T03:39:21;15.80;;;14.40;;
66741;SDS011;53654;54.152;19.432;2023-07-02T03:41:49;16.00;;;14.80;;
66741;SDS011;53654;54.152;19.432;2023-07-02T03:44:17;15.30;;;14.20;;
66741;SDS011;53654;54.152;19.432;2023-07-02T03:46:47;16.00;;;14.60;;
66741;SDS011;53654;54.152;19.432;2023-07-02T03:49:15;16.10;;;14.90;;
66741;SDS011;53654;54.152;19.432;2023-07-02T03:51:44;16.60;;;15.20;;
66741;SDS011;53654;54.152;19.432;2023-07-02T03:54:12;16.60;;;15.20;;
66741;SDS011;53654;54.152;19.432;2023-07-02T03:56:40;16.80;;;15.30;;
66741;SDS011;53654;54.152;19.432;2023-07-02T03:59:08;17.10;;;15.70;;
66741;SDS011;53654;54.152;19.432;2023-07-02T04:01:36;16.70;;;15.20;;
66741;SDS011;53654;54.152;19.432;2023-07-02T04:04:04;15.90;;;14.60;;
66741;SDS011;53654;54.152;19.432;2023-07-02T04:06:32;15.70;;;14.50;;
66741;SDS011;53654;54.152;19.432;2023-07-02T04:09:02;17.40;;;15.80;;
66741;SDS011;53654;54.152;19.432;2023-07-02T04:11:30;16.50;;;15.20;;
66741;SDS011;53654;54.152;19.432;2023-07-02T04:13:58;16.80;;;15.50;;
66741;SDS011;53654;54.152;19.432;2023-07-02T04:16:26;16.60;;;15.10;;
66741;SDS011;53654;54.152;19.432;2023-07-02T04:18:54;16.10;;;14.80;;
66741;SDS011;53654;54.152;19.432;2023-07-02T04:21:22;16.90;;;15.60;;
66741;SDS011;53654;54.152;19.432;2023-07-02T04:23:50;15.80;;;14.20;;
66741;SDS011;53654;54.152;19.432;2023-07-02T04:26:19;14.60;;;13.30;;
66741;SDS011;53654;54.152;19.432;2023-07-02T04:29:09;14.80;;;13.50;;
66741;SDS011;53654;54.152;19.432;2023-07-02T04:31:38;15.10;;;13.80;;
66741;SDS011;53654;54.152;19.432;2023-07-02T04:34:06;13.30;;;12.20;;
66741;SDS011;53654;54.152;19.432;2023-07-02T04:36:34;13.00;;;12.00;;
66741;SDS011;53654;54.152;19.432;2023-07-02T04:39:03;13.00;;;12.00;;
66741;SDS011;53654;54.152;19.432;2023-07-02T04:41:31;13.20;;;12.30;;
66741;SDS011;53654;54.152;19.432;2023-07-02T04:44:00;13.10;;;12.10;;
66741;SDS011;53654;54.152;19.432;2023-07-02T04:46:29;11.90;;;10.90;;
66741;SDS011;53654;54.152;19.432;2023-07-02T04:48:58;11.90;;;11.00;;
66741;SDS011;53654;54.152;19.432;2023-07-02T04:51:26;11.50;;;10.60;;
66741;SDS011;53654;54.152;19.432;2023-07-02T04:53:54;11.80;;;10.80;;
66741;SDS011;53654;54.152;19.432;2023-07-02T04:56:22;11.10;;;10.10;;
66741;SDS011;53654;54.152;19.432;2023-07-02T04:58:50;10.80;;;9.90;;
66741;SDS011;53654;54.152;19.432;2023-07-02T05:01:18;10.10;;;9.30;;
66741;SDS011;53654;54.152;19.432;2023-07-02T05:03:46;10.20;;;9.40;;
66741;SDS011;53654;54.152;19.432;2023-07-02T05:06:14;10.00;;;9.30;;
66741;SDS011;53654;54.152;19.432;2023-07-02T05:08:42;10.10;;;9.30;;
66741;SDS011;53654;54.152;19.432;2023-07-02T05:11:10;9.80;;;9.10;;
66741;SDS011;53654;54.152;19.432;2023-07-02T05:13:38;10.30;;;9.50;;
66741;SDS011;53654;54.152;19.432;2023-07-02T05:16:06;10.10;;;9.40;;
66741;SDS011;53654;54.152;19.432;2023-07-02T05:18:35;10.00;;;9.20;;
66741;SDS011;53654;54.152;19.432;2023-07-02T05:21:03;10.20;;;9.40;;
66741;SDS011;53654;54.152;19.432;2023-07-02T05:23:31;9.50;;;8.70;;
66741;SDS011;53654;54.152;19.432;2023-07-02T05:25:59;9.10;;;8.40;;
66741;SDS011;53654;54.152;19.432;2023-07-02T05:28:27;8.50;;;7.90;;
66741;SDS011;53654;54.152;19.432;2023-07-02T05:30:55;8.40;;;7.80;;
66741;SDS011;53654;54.152;19.432;2023-07-02T05:33:23;8.30;;;7.60;;
66741;SDS011;53654;54.152;19.432;2023-07-02T05:35:52;7.90;;;7.30;;
66741;SDS011;53654;54.152;19.432;2023-07-02T05:38:20;7.60;;;6.90;;
66741;SDS011;53654;54.152;19.432;2023-07-02T05:40:49;7.50;;;6.90;;
66741;SDS011;53654;54.152;19.432;2023-07-02T05:43:17;7.10;;;6.60;;
66741;SDS011;53654;54.152;19.432;2023-07-02T05:45:45;7.20;;;6.70;;
66741;SDS011;53654;54.152;19.432;2023-07-02T05:48:14;6.80;;;6.30;;
66741;SDS011;53654;54.152;19.432;2023-07-02T05:50:42;7.40;;;6.60;;
66741;SDS011;53654;54.152;19.432;2023-07-02T05:53:10;6.60;;;6.00;;
66741;SDS011;53654;54.152;19.432;2023-07-02T05:55:38;6.90;;;6.40;;
66741;SDS011;53654;54.152;19.432;2023-07-02T05:58:07;6.20;;;5.70;;
66741;SDS011;53654;54.152;19.432;2023-07-02T06:00:35;6.30;;;5.70;;
66741;SDS011;53654;54.152;19.432;2023-07-02T06:03:03;5.70;;;5.30;;
66741;SDS011;53654;54.152;19.432;2023-07-02T06:05:31;5.50;;;5.10;;
66741;SDS011;53654;54.152;19.432;2023-07-02T06:08:00;5.80;;;5.30;;
66741;SDS011;53654;54.152;19.432;2023-07-02T06:10:28;5.60;;;5.20;;
66741;SDS011;53654;54.152;19.432;2023-07-02T06:12:56;6.10;;;5.60;;
66741;SDS011;53654;54.152;19.432;2023-07-02T06:15:25;5.70;;;5.30;;
66741;SDS011;53654;54.152;19.432;2023-07-02T06:17:53;6.20;;;5.80;;
66741;SDS011;53654;54.152;19.432;2023-07-02T06:20:21;5.70;;;5.30;;
66741;SDS011;53654;54.152;19.432;2023-07-02T06:22:49;5.50;;;5.20;;
66741;SDS011;53654;54.152;19.432;2023-07-02T06:25:17;5.80;;;5.30;;
66741;SDS011;53654;54.152;19.432;2023-07-02T06:27:46;5.40;;;4.90;;
66741;SDS011;53654;54.152;19.432;2023-07-02T06:30:14;5.60;;;5.20;;
66741;SDS011;53654;54.152;19.432;2023-07-02T06:32:43;5.60;;;5.20;;
66741;SDS011;53654;54.152;19.432;2023-07-02T06:35:11;5.80;;;5.40;;
66741;SDS011;53654;54.152;19.432;2023-07-02T06:37:40;5.70;;;5.30;;
66741;SDS011;53654;54.152;19.432;2023-07-02T06:40:08;5.60;;;5.10;;
66741;SDS011;53654;54.152;19.432;2023-07-02T06:42:37;6.00;;;7.10;;
66741;SDS011;53654;54.152;19.432;2023-07-02T06:45:05;5.80;;;5.30;;
66741;SDS011;53654;54.152;19.432;2023-07-02T06:47:34;5.30;;;4.90;;
66741;SDS011;53654;54.152;19.432;2023-07-02T06:50:02;5.80;;;5.40;;
66741;SDS011;53654;54.152;19.432;2023-07-02T06:52:31;5.70;;;5.20;;
66741;SDS011;53654;54.152;19.432;2023-07-02T06:54:59;5.60;;;5.20;;
66741;SDS011;53654;54.152;19.432;2023-07-02T06:57:27;5.90;;;5.40;;
66741;SDS011;53654;54.152;19.432;2023-07-02T06:59:59;6.30;;;5.50;;
66741;SDS011;53654;54.152;19.432;2023-07-02T07:02:27;5.70;;;5.20;;
66741;SDS011;53654;54.152;19.432;2023-07-02T07:04:55;5.20;;;4.90;;
66741;SDS011;53654;54.152;19.432;2023-07-02T07:07:24;5.50;;;5.10;;
66741;SDS011;53654;54.152;19.432;2023-07-02T07:09:52;6.20;;;5.80;;
66741;SDS011;53654;54.152;19.432;2023-07-02T07:12:20;5.90;;;5.30;;
66741;SDS011;53654;54.152;19.432;2023-07-02T07:14:48;5.60;;;5.30;;
66741;SDS011;53654;54.152;19.432;2023-07-02T07:17:17;5.30;;;5.00;;
66741;SDS011;53654;54.152;19.432;2023-07-02T07:19:45;4.80;;;4.50;;
66741;SDS011;53654;54.152;19.432;2023-07-02T07:22:13;3.90;;;3.60;;
66741;SDS011;53654;54.152;19.432;2023-07-02T07:24:41;3.20;;;3.00;;
66741;SDS011;53654;54.152;19.432;2023-07-02T07:27:10;2.80;;;2.60;;
66741;SDS011;53654;54.152;19.432;2023-07-02T07:29:38;2.40;;;2.30;;
66741;SDS011;53654;54.152;19.432;2023-07-02T07:32:06;2.20;;;2.00;;
66741;SDS011;53654;54.152;19.432;2023-07-02T07:34:34;2.10;;;2.00;;
66741;SDS011;53654;54.152;19.432;2023-07-02T07:37:03;2.50;;;2.30;;
66741;SDS011;53654;54.152;19.432;2023-07-02T07:39:32;2.10;;;2.00;;
66741;SDS011;53654;54.152;19.432;2023-07-02T07:42:00;2.40;;;2.20;;
66741;SDS011;53654;54.152;19.432;2023-07-02T07:44:28;2.30;;;2.10;;
66741;SDS011;53654;54.152;19.432;2023-07-02T07:46:57;2.20;;;2.10;;
66741;SDS011;53654;54.152;19.432;2023-07-02T07:49:25;2.40;;;2.20;;
66741;SDS011;53654;54.152;19.432;2023-07-02T07:51:53;2.10;;;2.00;;
66741;SDS011;53654;54.152;19.432;2023-07-02T07:54:21;2.20;;;2.10;;
66741;SDS011;53654;54.152;19.432;2023-07-02T07:56:50;2.00;;;1.90;;
66741;SDS011;53654;54.152;19.432;2023-07-02T07:59:18;2.20;;;2.00;;
66741;SDS011;53654;54.152;19.432;2023-07-02T08:01:46;2.00;;;1.90;;
66741;SDS011;53654;54.152;19.432;2023-07-02T08:04:14;1.90;;;1.80;;
66741;SDS011;53654;54.152;19.432;2023-07-02T08:06:42;2.10;;;1.90;;
66741;SDS011;53654;54.152;19.432;2023-07-02T08:09:12;1.90;;;1.80;;
66741;SDS011;53654;54.152;19.432;2023-07-02T08:11:40;2.00;;;1.90;;
66741;SDS011;53654;54.152;19.432;2023-07-02T08:14:08;1.80;;;1.80;;
66741;SDS011;53654;54.152;19.432;2023-07-02T08:16:36;2.30;;;2.10;;
66741;SDS011;53654;54.152;19.432;2023-07-02T08:19:05;3.00;;;2.20;;
66741;SDS011;53654;54.152;19.432;2023-07-02T08:21:33;4.00;;;2.30;;
66741;SDS011;53654;54.152;19.432;2023-07-02T08:24:02;2.10;;;2.00;;
66741;SDS011;53654;54.152;19.432;2023-07-02T08:26:31;2.50;;;2.40;;
66741;SDS011;53654;54.152;19.432;2023-07-02T08:28:59;2.30;;;2.20;;
66741;SDS011;53654;54.152;19.432;2023-07-02T08:31:27;2.20;;;2.10;;
66741;SDS011;53654;54.152;19.432;2023-07-02T08:33:55;2.60;;;2.40;;
66741;SDS011;53654;54.152;19.432;2023-07-02T08:36:24;2.60;;;2.40;;
66741;SDS011;53654;54.152;19.432;2023-07-02T08:38:52;2.40;;;2.10;;
66741;SDS011;53654;54.152;19.432;2023-07-02T08:41:20;2.40;;;2.20;;
66741;SDS011;53654;54.152;19.432;2023-07-02T08:43:54;2.20;;;2.10;;
66741;SDS011;53654;54.152;19.432;2023-07-02T08:46:22;2.50;;;2.30;;
66741;SDS011;53654;54.152;19.432;2023-07-02T08:48:51;3.00;;;2.40;;
66741;SDS011;53654;54.152;19.432;2023-07-02T08:51:19;2.70;;;2.40;;
66741;SDS011;53654;54.152;19.432;2023-07-02T08:53:48;3.10;;;2.80;;
66741;SDS011;53654;54.152;19.432;2023-07-02T08:56:16;2.60;;;2.40;;
66741;SDS011;53654;54.152;19.432;2023-07-02T08:58:44;2.90;;;2.70;;
66741;SDS011;53654;54.152;19.432;2023-07-02T09:01:13;2.70;;;2.40;;
66741;SDS011;53654;54.152;19.432;2023-07-02T09:03:42;5.40;;;2.50;;
66741;SDS011;53654;54.152;19.432;2023-07-02T09:06:11;2.70;;;2.50;;
66741;SDS011;53654;54.152;19.432;2023-07-02T09:08:40;3.10;;;2.50;;
66741;SDS011;53654;54.152;19.432;2023-07-02T09:13:44;4.20;;;2.60;;
66741;SDS011;53654;54.152;19.432;2023-07-02T09:16:27;2.80;;;2.50;;
66741;SDS011;53654;54.152;19.432;2023-07-02T09:19:06;2.70;;;2.50;;
66741;SDS011;53654;54.152;19.432;2023-07-02T09:21:41;2.90;;;2.40;;
66741;SDS011;53654;54.152;19.432;2023-07-02T09:24:18;1.90;;;1.80;;
66741;SDS011;53654;54.152;19.432;2023-07-02T09:26:53;3.10;;;1.70;;
66741;SDS011;53654;54.152;19.432;2023-07-02T09:29:24;1.70;;;1.60;;
66741;SDS011;53654;54.152;19.432;2023-07-02T09:31:58;3.30;;;1.90;;
66741;SDS011;53654;54.152;19.432;2023-07-02T09:34:38;2.50;;;1.90;;
66741;SDS011;53654;54.152;19.432;2023-07-02T09:37:10;2.80;;;2.10;;
66741;SDS011;53654;54.152;19.432;2023-07-02T09:39:41;2.70;;;2.20;;
66741;SDS011;53654;54.152;19.432;2023-07-02T09:42:10;3.30;;;2.20;;
66741;SDS011;53654;54.152;19.432;2023-07-02T09:44:39;3.10;;;1.90;;
66741;SDS011;53654;54.152;19.432;2023-07-02T09:47:14;2.70;;;2.10;;
66741;SDS011;53654;54.152;19.432;2023-07-02T09:49:49;2.40;;;2.10;;
66741;SDS011;53654;54.152;19.432;2023-07-02T09:52:21;2.50;;;2.00;;
66741;SDS011;53654;54.152;19.432;2023-07-02T09:54:51;2.40;;;2.20;;
66741;SDS011;53654;54.152;19.432;2023-07-02T09:57:19;2.50;;;2.20;;
66741;SDS011;53654;54.152;19.432;2023-07-02T09:59:48;3.10;;;2.40;;
66741;SDS011;53654;54.152;19.432;2023-07-02T10:02:18;3.50;;;2.50;;
66741;SDS011;53654;54.152;19.432;2023-07-02T10:04:46;3.10;;;2.60;;
66741;SDS011;53654;54.152;19.432;2023-07-02T10:07:28;3.00;;;2.50;;
66741;SDS011;53654;54.152;19.432;2023-07-02T10:09:57;3.80;;;2.60;;
66741;SDS011;53654;54.152;19.432;2023-07-02T10:12:26;2.80;;;2.50;;
66741;SDS011;53654;54.152;19.432;2023-07-02T10:14:59;3.60;;;2.20;;
66741;SDS011;53654;54.152;19.432;2023-07-02T10:17:34;3.10;;;2.30;;
66741;SDS011;53654;54.152;19.432;2023-07-02T10:20:05;3.40;;;2.30;;
66741;SDS011;53654;54.152;19.432;2023-07-02T10:22:45;3.00;;;2.40;;
66741;SDS011;53654;54.152;19.432;2023-07-02T10:25:25;3.30;;;2.50;;
66741;SDS011;53654;54.152;19.432;2023-07-02T10:27:54;2.90;;;2.60;;
66741;SDS011;53654;54.152;19.432;2023-07-02T10:30:36;4.60;;;2.80;;
66741;SDS011;53654;54.152;19.432;2023-07-02T10:33:12;3.30;;;2.50;;
66741;SDS011;53654;54.152;19.432;2023-07-02T10:35:46;3.10;;;2.60;;
66741;SDS011;53654;54.152;19.432;2023-07-02T10:38:19;3.40;;;2.30;;
66741;SDS011;53654;54.152;19.432;2023-07-02T10:40:58;3.90;;;2.30;;
66741;SDS011;53654;54.152;19.432;2023-07-02T10:43:31;5.00;;;2.50;;
66741;SDS011;53654;54.152;19.432;2023-07-02T10:46:00;3.40;;;2.40;;
66741;SDS011;53654;54.152;19.432;2023-07-02T10:48:30;2.50;;;2.20;;
66741;SDS011;53654;54.152;19.432;2023-07-02T10:50:59;3.60;;;2.30;;
66741;SDS011;53654;54.152;19.432;2023-07-02T10:53:27;3.20;;;2.50;;
66741;SDS011;53654;54.152;19.432;2023-07-02T10:55:56;3.10;;;2.60;;
66741;SDS011;53654;54.152;19.432;2023-07-02T10:58:26;3.50;;;2.10;;
66741;SDS011;53654;54.152;19.432;2023-07-02T11:00:55;2.90;;;2.20;;
66741;SDS011;53654;54.152;19.432;2023-07-02T11:03:24;3.10;;;2.10;;
66741;SDS011;53654;54.152;19.432;2023-07-02T11:05:54;2.50;;;2.20;;
66741;SDS011;53654;54.152;19.432;2023-07-02T11:08:23;3.50;;;2.20;;
66741;SDS011;53654;54.152;19.432;2023-07-02T11:11:06;3.00;;;2.30;;
66741;SDS011;53654;54.152;19.432;2023-07-02T11:13:43;4.50;;;2.50;;
66741;SDS011;53654;54.152;19.432;2023-07-02T11:16:26;4.30;;;2.20;;
66741;SDS011;53654;54.152;19.432;2023-07-02T11:19:09;3.50;;;2.30;;
66741;SDS011;53654;54.152;19.432;2023-07-02T11:21:38;3.40;;;2.30;;
66741;SDS011;53654;54.152;19.432;2023-07-02T11:24:07;2.80;;;2.10;;
66741;SDS011;53654;54.152;19.432;2023-07-02T11:26:37;3.20;;;2.40;;
66741;SDS011;53654;54.152;19.432;2023-07-02T11:29:11;3.70;;;2.50;;
66741;SDS011;53654;54.152;19.432;2023-07-02T11:31:40;3.00;;;2.40;;
66741;SDS011;53654;54.152;19.432;2023-07-02T11:34:27;2.80;;;2.40;;
66741;SDS011;53654;54.152;19.432;2023-07-02T11:36:55;2.70;;;2.20;;
66741;SDS011;53654;54.152;19.432;2023-07-02T11:39:23;3.30;;;2.50;;
66741;SDS011;53654;54.152;19.432;2023-07-02T11:41:51;2.90;;;2.40;;
66741;SDS011;53654;54.152;19.432;2023-07-02T11:44:20;4.30;;;2.40;;
66741;SDS011;53654;54.152;19.432;2023-07-02T11:46:48;3.20;;;2.50;;
66741;SDS011;53654;54.152;19.432;2023-07-02T11:49:16;3.30;;;2.50;;
66741;SDS011;53654;54.152;19.432;2023-07-02T11:51:44;2.70;;;2.50;;
66741;SDS011;53654;54.152;19.432;2023-07-02T11:54:17;3.00;;;2.40;;
66741;SDS011;53654;54.152;19.432;2023-07-02T11:56:46;3.40;;;2.50;;
66741;SDS011;53654;54.152;19.432;2023-07-02T11:59:14;4.90;;;2.70;;
66741;SDS011;53654;54.152;19.432;2023-07-02T12:01:42;4.80;;;2.90;;
66741;SDS011;53654;54.152;19.432;2023-07-02T12:04:10;4.40;;;2.60;;
66741;SDS011;53654;54.152;19.432;2023-07-02T12:06:40;4.20;;;2.80;;
66741;SDS011;53654;54.152;19.432;2023-07-02T12:09:08;3.30;;;2.60;;
66741;SDS011;53654;54.152;19.432;2023-07-02T12:11:37;3.50;;;2.60;;
66741;SDS011;53654;54.152;19.432;2023-07-02T12:14:06;4.00;;;2.90;;
66741;SDS011;53654;54.152;19.432;2023-07-02T12:16:34;4.00;;;2.80;;
66741;SDS011;53654;54.152;19.432;2023-07-02T12:19:02;4.90;;;3.10;;
66741;SDS011;53654;54.152;19.432;2023-07-02T12:21:31;3.70;;;2.80;;
66741;SDS011;53654;54.152;19.432;2023-07-02T12:23:59;3.60;;;2.90;;
66741;SDS011;53654;54.152;19.432;2023-07-02T12:26:28;4.20;;;2.90;;
66741;SDS011;53654;54.152;19.432;2023-07-02T12:28:56;4.50;;;2.80;;
66741;SDS011;53654;54.152;19.432;2023-07-02T12:31:24;3.90;;;2.90;;
66741;SDS011;53654;54.152;19.432;2023-07-02T12:33:53;4.10;;;2.80;;
66741;SDS011;53654;54.152;19.432;2023-07-02T12:36:21;3.90;;;3.10;;
66741;SDS011;53654;54.152;19.432;2023-07-02T12:38:49;4.10;;;2.90;;
66741;SDS011;53654;54.152;19.432;2023-07-02T12:41:17;4.00;;;3.30;;
66741;SDS011;53654;54.152;19.432;2023-07-02T12:43:45;3.80;;;3.10;;
66741;SDS011;53654;54.152;19.432;2023-07-02T12:46:14;4.30;;;3.20;;
66741;SDS011;53654;54.152;19.432;2023-07-02T12:48:42;4.10;;;3.30;;
66741;SDS011;53654;54.152;19.432;2023-07-02T12:51:10;5.70;;;3.20;;
66741;SDS011;53654;54.152;19.432;2023-07-02T12:53:39;4.50;;;3.30;;
66741;SDS011;53654;54.152;19.432;2023-07-02T12:56:07;4.00;;;3.10;;
66741;SDS011;53654;54.152;19.432;2023-07-02T12:58:37;5.10;;;3.30;;
66741;SDS011;53654;54.152;19.432;2023-07-02T13:01:05;4.30;;;3.40;;
66741;SDS011;53654;54.152;19.432;2023-07-02T13:03:34;4.50;;;3.60;;
66741;SDS011;53654;54.152;19.432;2023-07-02T13:06:02;4.20;;;3.40;;
66741;SDS011;53654;54.152;19.432;2023-07-02T13:08:31;4.50;;;3.30;;
66741;SDS011;53654;54.152;19.432;2023-07-02T13:10:59;5.60;;;3.60;;
66741;SDS011;53654;54.152;19.432;2023-07-02T13:13:28;5.60;;;3.50;;
66741;SDS011;53654;54.152;19.432;2023-07-02T13:15:57;5.50;;;3.70;;
66741;SDS011;53654;54.152;19.432;2023-07-02T13:18:28;5.20;;;3.70;;
66741;SDS011;53654;54.152;19.432;2023-07-02T13:20:56;6.20;;;3.80;;
66741;SDS011;53654;54.152;19.432;2023-07-02T13:23:25;4.90;;;3.90;;
66741;SDS011;53654;54.152;19.432;2023-07-02T13:25:54;3.90;;;3.40;;
66741;SDS011;53654;54.152;19.432;2023-07-02T13:28:23;4.40;;;3.70;;
66741;SDS011;53654;54.152;19.432;2023-07-02T13:30:53;5.20;;;4.40;;
66741;SDS011;53654;54.152;19.432;2023-07-02T13:33:21;5.40;;;3.60;;
66741;SDS011;53654;54.152;19.432;2023-07-02T13:35:50;5.00;;;3.70;;
66741;SDS011;53654;54.152;19.432;2023-07-02T13:38:19;5.50;;;3.80;;
66741;SDS011;53654;54.152;19.432;2023-07-02T13:40:48;4.70;;;3.90;;
66741;SDS011;53654;54.152;19.432;2023-07-02T13:43:16;4.00;;;3.50;;
66741;SDS011;53654;54.152;19.432;2023-07-02T13:45:44;4.10;;;3.50;;
66741;SDS011;53654;54.152;19.432;2023-07-02T13:48:12;5.30;;;3.70;;
66741;SDS011;53654;54.152;19.432;2023-07-02T13:50:40;4.20;;;3.80;;
66741;SDS011;53654;54.152;19.432;2023-07-02T13:53:08;4.30;;;3.60;;
66741;SDS011;53654;54.152;19.432;2023-07-02T13:55:36;4.60;;;3.70;;
66741;SDS011;53654;54.152;19.432;2023-07-02T13:58:05;5.10;;;3.90;;
66741;SDS011;53654;54.152;19.432;2023-07-02T14:00:33;4.50;;;3.80;;
66741;SDS011;53654;54.152;19.432;2023-07-02T14:03:01;5.60;;;4.20;;
66741;SDS011;53654;54.152;19.432;2023-07-02T14:05:30;5.40;;;4.00;;
66741;SDS011;53654;54.152;19.432;2023-07-02T14:07:58;6.20;;;5.40;;
66741;SDS011;53654;54.152;19.432;2023-07-02T14:10:26;5.10;;;3.90;;
66741;SDS011;53654;54.152;19.432;2023-07-02T14:12:56;4.70;;;3.80;;
66741;SDS011;53654;54.152;19.432;2023-07-02T14:15:24;4.60;;;4.00;;
66741;SDS011;53654;54.152;19.432;2023-07-02T14:17:53;6.90;;;4.40;;
66741;SDS011;53654;54.152;19.432;2023-07-02T14:20:22;7.50;;;4.30;;
66741;SDS011;53654;54.152;19.432;2023-07-02T14:22:50;5.30;;;4.20;;
66741;SDS011;53654;54.152;19.432;2023-07-02T14:25:19;6.30;;;4.30;;
66741;SDS011;53654;54.152;19.432;2023-07-02T14:28:07;5.60;;;4.40;;
66741;SDS011;53654;54.152;19.432;2023-07-02T14:30:35;6.00;;;4.30;;
66741;SDS011;53654;54.152;19.432;2023-07-02T14:33:05;5.70;;;4.20;;
66741;SDS011;53654;54.152;19.432;2023-07-02T14:35:34;6.00;;;4.40;;
66741;SDS011;53654;54.152;19.432;2023-07-02T14:38:03;6.30;;;4.10;;
66741;SDS011;53654;54.152;19.432;2023-07-02T14:40:32;5.80;;;4.30;;
66741;SDS011;53654;54.152;19.432;2023-07-02T14:43:01;5.50;;;4.30;;